createdAt,value
2023-05-01T00:01:12.900Z,98131.59
2023-05-01T00:03:46.202Z,98132.94
2023-05-01T00:06:16.857Z,98135.41
2023-05-01T00:08:47.707Z,98134.00
2023-05-01T00:11:18.223Z,98119.53
2023-05-01T00:13:48.890Z,98122.47
2023-05-01T00:16:19.868Z,98124.59
2023-05-01T00:18:52.840Z,98120.75
2023-05-01T00:21:23.275Z,98120.91
2023-05-01T00:23:53.925Z,98113.50
2023-05-01T00:26:30.709Z,98113.66
2023-05-01T00:29:01.544Z,98110.56
2023-05-01T00:31:32.160Z,98109.59
2023-05-01T00:34:05.508Z,98107.13
2023-05-01T00:36:36.251Z,98109.25
2023-05-01T00:39:07.827Z,98101.13
2023-05-01T00:41:38.671Z,98104.00
2023-05-01T00:44:09.370Z,98102.16
2023-05-01T00:46:40.026Z,98094.91
2023-05-01T00:49:13.752Z,98101.81
2023-05-01T00:51:44.903Z,98091.69
2023-05-01T00:54:15.188Z,98088.72
2023-05-01T00:56:46.824Z,98089.78
2023-05-01T00:59:18.100Z,98081.63
2023-05-01T01:01:49.097Z,98083.75
2023-05-01T01:04:22.243Z,98079.91
2023-05-01T01:07:07.134Z,98086.66
2023-05-01T01:10:03.364Z,98083.56
2023-05-01T01:12:41.085Z,98059.94
2023-05-01T01:15:20.733Z,98062.38
2023-05-01T01:17:58.458Z,98058.22
2023-05-01T01:20:41.282Z,98059.91
2023-05-01T01:24:02.155Z,98053.72
2023-05-01T01:27:00.434Z,98055.84
2023-05-01T01:29:55.295Z,98046.94
2023-05-01T01:33:01.604Z,98050.41
2023-05-01T01:35:36.944Z,98056.69
2023-05-01T01:38:15.326Z,98052.72
2023-05-01T01:40:59.582Z,98055.91
2023-05-01T01:43:37.272Z,98052.63
2023-05-01T01:46:11.304Z,98046.81
2023-05-01T01:48:45.968Z,98048.47
2023-05-01T01:51:23.745Z,98047.06
2023-05-01T01:53:59.091Z,98053.03
2023-05-01T01:56:31.786Z,98048.09
2023-05-01T01:59:05.373Z,98046.25
2023-05-01T02:01:38.277Z,98043.50
2023-05-01T02:04:10.683Z,98049.09
2023-05-01T02:06:46.703Z,98036.22
2023-05-01T02:09:20.023Z,98036.34
2023-05-01T02:11:51.691Z,98033.72
2023-05-01T02:14:23.623Z,98036.91
2023-05-01T02:16:55.842Z,98029.09
2023-05-01T02:19:28.430Z,98035.91
2023-05-01T02:22:03.161Z,98020.72
2023-05-01T02:24:35.829Z,98015.00
2023-05-01T02:27:12.541Z,97999.69
2023-05-01T02:29:43.091Z,97995.81
2023-05-01T02:32:13.769Z,97993.66
2023-05-01T02:34:44.490Z,97996.09
2023-05-01T02:37:17.916Z,97989.91
2023-05-01T02:39:49.853Z,97995.91
2023-05-01T02:42:23.690Z,97989.28
2023-05-01T02:45:00.266Z,97986.31
2023-05-01T02:47:34.044Z,97989.06
2023-05-01T02:50:06.456Z,97982.78
2023-05-01T02:52:41.291Z,97984.13
2023-05-01T02:55:42.974Z,97979.84
2023-05-01T02:58:18.796Z,97974.47
2023-05-01T03:00:51.283Z,97972.78
2023-05-01T03:03:23.366Z,97965.22
2023-05-01T03:05:53.869Z,97954.31
2023-05-01T03:08:27.160Z,97955.31
2023-05-01T03:10:57.657Z,97953.25
2023-05-01T03:13:28.225Z,97953.69
2023-05-01T03:15:59.930Z,97952.50
2023-05-01T03:18:30.509Z,97951.91
2023-05-01T03:21:01.030Z,97947.97
2023-05-01T03:23:34.463Z,97940.78
2023-05-01T03:26:05.003Z,97946.28
2023-05-01T03:28:35.658Z,97931.31
2023-05-01T03:31:06.347Z,97927.34
2023-05-01T03:33:37.273Z,97915.69
2023-05-01T03:36:09.349Z,97912.59
2023-05-01T03:38:42.841Z,97911.81
2023-05-01T03:41:13.310Z,97907.22
2023-05-01T03:44:07.315Z,97911.53
2023-05-01T03:46:42.340Z,97908.50
2023-05-01T03:49:17.963Z,97914.53
2023-05-01T03:51:51.556Z,97908.16
2023-05-01T03:54:24.830Z,97895.78
2023-05-01T03:57:03.589Z,97907.25
2023-05-01T03:59:34.080Z,97900.97
2023-05-01T04:02:05.378Z,97897.00
2023-05-01T04:04:38.766Z,97900.66
2023-05-01T04:07:10.198Z,97916.63
2023-05-01T04:09:43.885Z,97915.59
2023-05-01T04:12:14.373Z,97921.41
2023-05-01T04:14:47.286Z,97917.88
2023-05-01T04:17:18.054Z,97918.56
2023-05-01T04:19:49.027Z,97916.00
2023-05-01T04:22:19.772Z,97920.00
2023-05-01T04:24:53.194Z,97917.19
2023-05-01T04:27:23.831Z,97920.97
2023-05-01T04:29:55.141Z,97920.41
2023-05-01T04:32:26.703Z,97923.78
2023-05-01T04:34:57.952Z,97926.31
2023-05-01T04:37:28.620Z,97913.91
2023-05-01T04:40:01.719Z,97922.72
2023-05-01T04:42:34.469Z,97929.50
2023-05-01T04:45:05.105Z,97927.97
2023-05-01T04:47:39.737Z,97932.69
2023-05-01T04:50:12.011Z,97931.47
2023-05-01T04:52:42.465Z,97926.00
2023-05-01T04:55:15.684Z,97931.09
2023-05-01T04:58:03.917Z,97940.22
2023-05-01T05:00:35.747Z,97924.59
2023-05-01T05:03:06.938Z,97918.16
2023-05-01T05:05:37.382Z,97913.09
2023-05-01T05:08:10.497Z,97927.28
2023-05-01T05:10:51.188Z,97921.75
2023-05-01T05:13:29.017Z,97918.06
2023-05-01T05:16:03.969Z,97916.25
2023-05-01T05:18:35.349Z,97919.03
2023-05-01T05:21:08.365Z,97925.66
2023-05-01T05:23:39.767Z,97916.22
2023-05-01T05:26:12.828Z,97910.72
2023-05-01T05:28:43.770Z,97917.31
2023-05-01T05:31:14.607Z,97911.66
2023-05-01T05:33:45.252Z,97912.25
2023-05-01T05:36:17.843Z,97911.06
2023-05-01T05:38:48.630Z,97908.59
2023-05-01T05:41:24.614Z,97904.47
2023-05-01T05:43:59.907Z,97907.16
2023-05-01T05:46:31.031Z,97908.47
2023-05-01T05:49:01.890Z,97896.41
2023-05-01T05:51:34.185Z,97892.66
2023-05-01T05:54:05.380Z,97892.03
2023-05-01T05:56:41.465Z,97888.84
2023-05-01T05:59:11.962Z,97890.00
2023-05-01T06:01:43.247Z,97893.09
2023-05-01T06:04:15.212Z,97890.44
2023-05-01T06:06:46.969Z,97886.72
2023-05-01T06:09:20.190Z,97881.66
2023-05-01T06:11:53.116Z,97892.84
2023-05-01T06:14:23.560Z,97876.44
2023-05-01T06:16:53.991Z,97883.56
2023-05-01T06:19:24.500Z,97885.03
2023-05-01T06:22:01.581Z,97875.69
2023-05-01T06:24:33.449Z,97871.50
2023-05-01T06:27:07.540Z,97861.97
2023-05-01T06:29:38.125Z,97863.28
2023-05-01T06:32:09.186Z,97863.47
2023-05-01T06:34:39.759Z,97859.00
2023-05-01T06:37:10.510Z,97863.63
2023-05-01T06:39:40.987Z,97861.13
2023-05-01T06:42:16.370Z,97863.88
2023-05-01T06:44:47.461Z,97860.81
2023-05-01T06:47:17.908Z,97857.69
2023-05-01T06:49:48.431Z,97864.22
2023-05-01T06:52:19.005Z,97857.84
2023-05-01T06:54:49.472Z,97867.34
2023-05-01T06:57:22.658Z,97861.78
2023-05-01T06:59:53.204Z,97862.72
2023-05-01T07:02:23.886Z,97859.34
2023-05-01T07:04:54.386Z,97854.41
2023-05-01T07:07:24.881Z,97858.72
2023-05-01T07:09:55.952Z,97855.66
2023-05-01T07:12:29.797Z,97841.53
2023-05-01T07:15:00.324Z,97837.50
2023-05-01T07:17:32.016Z,97842.34
2023-05-01T07:20:02.632Z,97843.91
2023-05-01T07:22:33.112Z,97850.47
2023-05-01T07:25:04.227Z,97844.88
2023-05-01T07:27:37.543Z,97839.78
2023-05-01T07:30:10.195Z,97840.22
2023-05-01T07:32:41.143Z,97842.88
2023-05-01T07:35:13.450Z,97845.47
2023-05-01T07:37:43.904Z,97831.44
2023-05-01T07:40:15.382Z,97839.50
2023-05-01T07:42:54.487Z,97839.56
2023-05-01T07:45:25.575Z,97834.47
2023-05-01T07:47:55.835Z,97822.09
2023-05-01T07:50:27.302Z,97830.97
2023-05-01T07:52:58.082Z,97832.41
2023-05-01T07:55:28.614Z,97819.22
2023-05-01T07:58:01.701Z,97824.06
2023-05-01T08:00:32.793Z,97827.19
2023-05-01T08:03:03.380Z,97813.84
2023-05-01T08:05:34.476Z,97813.66
2023-05-01T08:08:05.750Z,97814.22
2023-05-01T08:10:36.228Z,97808.88
2023-05-01T08:13:09.425Z,97805.78
2023-05-01T08:15:42.870Z,97803.25
2023-05-01T08:18:15.908Z,97803.19
2023-05-01T08:20:46.641Z,97795.47
2023-05-01T08:23:17.597Z,97793.13
2023-05-01T08:25:51.274Z,97799.66
2023-05-01T08:28:26.084Z,97802.41
2023-05-01T08:30:56.550Z,97806.75
2023-05-01T08:33:27.031Z,97808.53
2023-05-01T08:35:57.254Z,97803.50
2023-05-01T08:38:27.805Z,97792.78
2023-05-01T08:40:59.942Z,97786.28
2023-05-01T08:43:34.656Z,97792.84
2023-05-01T08:46:05.524Z,97800.31
2023-05-01T08:48:39.454Z,97787.72
2023-05-01T08:51:10.172Z,97796.88
2023-05-01T08:53:42.045Z,97787.69
2023-05-01T08:56:15.660Z,97794.09
2023-05-01T08:58:52.896Z,97778.88
2023-05-01T09:01:25.395Z,97772.72
2023-05-01T09:03:57.518Z,97775.97
2023-05-01T09:06:30.431Z,97767.13
2023-05-01T09:09:01.599Z,97765.00
2023-05-01T09:11:32.466Z,97761.19
2023-05-01T09:14:08.826Z,97759.72
2023-05-01T09:16:39.384Z,97753.31
2023-05-01T09:19:09.996Z,97747.09
2023-05-01T09:21:40.670Z,97758.13
2023-05-01T09:24:11.282Z,97755.97
2023-05-01T09:26:44.131Z,97747.56
2023-05-01T09:29:46.906Z,97741.94
2023-05-01T09:32:20.929Z,97747.25
2023-05-01T09:34:53.049Z,97750.25
2023-05-01T09:37:32.063Z,97737.50
2023-05-01T09:40:11.819Z,97737.88
2023-05-01T09:42:53.637Z,97723.66
2023-05-01T09:45:26.915Z,97725.75
2023-05-01T09:48:13.720Z,97727.38
2023-05-01T09:50:44.616Z,97729.75
2023-05-01T09:53:15.101Z,97712.66
2023-05-01T09:55:45.656Z,97716.53
2023-05-01T09:58:30.630Z,97703.09
2023-05-01T10:01:03.960Z,97704.84
2023-05-01T10:03:35.001Z,97705.47
2023-05-01T10:06:05.778Z,97698.84
2023-05-01T10:08:51.513Z,97699.09
2023-05-01T10:11:22.214Z,97709.53
2023-05-01T10:14:09.885Z,97698.03
2023-05-01T10:16:43.489Z,97694.56
2023-05-01T10:19:15.728Z,97695.19
2023-05-01T10:21:46.292Z,97688.63
2023-05-01T10:24:17.421Z,97692.38
2023-05-01T10:26:51.577Z,97692.22
2023-05-01T10:29:24.291Z,97693.00
2023-05-01T10:31:58.089Z,97681.97
2023-05-01T10:34:30.221Z,97679.44
2023-05-01T10:37:07.808Z,97675.19
2023-05-01T10:39:40.327Z,97671.94
2023-05-01T10:42:14.594Z,97668.59
2023-05-01T10:44:48.096Z,97663.09
2023-05-01T10:47:51.200Z,97655.53
2023-05-01T10:50:21.673Z,97665.88
2023-05-01T10:53:20.010Z,97661.88
2023-05-01T10:55:52.293Z,97656.81
2023-05-01T10:59:01.143Z,97644.34
2023-05-01T11:01:37.188Z,97633.09
2023-05-01T11:04:12.064Z,97625.84
2023-05-01T11:07:18.118Z,97624.34
2023-05-01T11:09:51.525Z,97618.88
2023-05-01T11:12:54.453Z,97612.69
2023-05-01T11:15:34.127Z,97623.50
2023-05-01T11:18:06.793Z,97613.34
2023-05-01T11:20:53.020Z,97612.72
2023-05-01T11:23:27.045Z,97608.47
2023-05-01T11:26:10.281Z,97596.34
2023-05-01T11:28:42.645Z,97597.56
2023-05-01T11:31:13.483Z,97583.22
2023-05-01T11:33:44.046Z,97582.69
2023-05-01T11:36:17.355Z,97572.56
2023-05-01T11:38:56.680Z,97574.22
2023-05-01T11:41:28.464Z,97568.06
2023-05-01T11:44:01.987Z,97565.06
2023-05-01T11:46:36.210Z,97556.97
2023-05-01T11:49:07.040Z,97555.81
2023-05-01T11:51:40.223Z,97549.25
2023-05-01T11:54:14.453Z,97550.78
2023-05-01T11:56:46.364Z,97536.31
2023-05-01T11:59:19.194Z,97542.03
2023-05-01T12:01:50.827Z,97545.03
2023-05-01T12:04:32.331Z,97533.66
2023-05-01T12:07:05.822Z,97533.59
2023-05-01T12:09:36.789Z,97526.13
2023-05-01T12:12:08.268Z,97520.41
2023-05-01T12:14:38.842Z,97523.44
2023-05-01T12:17:12.111Z,97509.41
2023-05-01T12:19:52.179Z,97518.63
2023-05-01T12:22:25.408Z,97515.97
2023-05-01T12:24:56.517Z,97508.41
2023-05-01T12:27:27.271Z,97517.94
2023-05-01T12:29:58.500Z,97511.59
2023-05-01T12:32:34.822Z,97498.00
2023-05-01T12:35:17.431Z,97520.47
2023-05-01T12:37:50.615Z,97508.47
2023-05-01T12:40:23.136Z,97513.72
2023-05-01T12:42:59.832Z,97503.63
2023-05-01T12:45:30.500Z,97503.84
2023-05-01T12:48:01.097Z,97500.72
2023-05-01T12:50:31.607Z,97488.16
2023-05-01T12:53:09.903Z,97489.88
2023-05-01T12:55:51.204Z,97473.00
2023-05-01T12:58:22.180Z,97481.34
2023-05-01T13:00:54.232Z,97475.50
2023-05-01T13:03:28.636Z,97467.84
2023-05-01T13:06:01.472Z,97464.53
2023-05-01T13:08:36.636Z,97467.25
2023-05-01T13:11:14.331Z,97464.03
2023-05-01T13:13:46.381Z,97455.63
2023-05-01T13:16:18.604Z,97454.66
2023-05-01T13:18:50.542Z,97452.22
2023-05-01T13:21:24.480Z,97448.13
2023-05-01T13:24:00.742Z,97439.00
2023-05-01T13:26:33.852Z,97440.06
2023-05-01T13:29:06.284Z,97440.66
2023-05-01T13:31:36.969Z,97448.81
2023-05-01T13:34:08.638Z,97444.94
2023-05-01T13:36:39.537Z,97436.81
2023-05-01T13:39:12.922Z,97452.44
2023-05-01T13:41:46.433Z,97440.44
2023-05-01T13:44:17.014Z,97449.34
2023-05-01T13:46:48.342Z,97454.16
2023-05-01T13:49:24.814Z,97447.28
2023-05-01T13:51:55.685Z,97451.78
2023-05-01T13:54:28.956Z,97450.47
2023-05-01T13:56:59.476Z,97448.63
2023-05-01T13:59:37.250Z,97448.47
2023-05-01T14:02:23.397Z,97454.75
2023-05-01T14:04:54.161Z,97441.94
2023-05-01T14:07:26.917Z,97443.06
2023-05-01T14:10:02.569Z,97436.47
2023-05-01T14:12:37.017Z,97444.47
2023-05-01T14:15:09.807Z,97453.66
2023-05-01T14:17:41.551Z,97451.34
2023-05-01T14:20:15.901Z,97451.34
2023-05-01T14:22:48.337Z,97460.91
2023-05-01T14:25:34.329Z,97450.25
2023-05-01T14:28:11.929Z,97448.28
2023-05-01T14:30:45.388Z,97447.69
2023-05-01T14:33:20.230Z,97442.81
2023-05-01T14:35:55.918Z,97446.81
2023-05-01T14:38:35.521Z,97444.00
2023-05-01T14:41:11.192Z,97442.78
2023-05-01T14:43:45.688Z,97438.91
2023-05-01T14:46:16.935Z,97445.13
2023-05-01T14:48:47.856Z,97436.53
2023-05-01T14:51:23.175Z,97447.44
2023-05-01T14:53:54.260Z,97448.88
2023-05-01T14:56:27.366Z,97444.94
2023-05-01T14:58:57.904Z,97445.47
2023-05-01T15:01:29.256Z,97450.19
2023-05-01T15:04:01.949Z,97459.38
2023-05-01T15:06:34.094Z,97453.72
2023-05-01T15:09:05.439Z,97451.59
2023-05-01T15:11:38.510Z,97459.34
2023-05-01T15:14:08.995Z,97455.03
2023-05-01T15:16:39.514Z,97452.59
2023-05-01T15:19:10.010Z,97452.06
2023-05-01T15:21:40.485Z,97443.16
2023-05-01T15:24:10.992Z,97444.88
2023-05-01T15:26:44.060Z,97448.22
2023-05-01T15:29:14.642Z,97450.59
2023-05-01T15:31:45.206Z,97445.09
2023-05-01T15:34:15.767Z,97444.78
2023-05-01T15:36:46.256Z,97443.69
2023-05-01T15:39:16.686Z,97453.22
2023-05-01T15:41:50.216Z,97441.34
2023-05-01T15:44:20.845Z,97437.88
2023-05-01T15:46:52.571Z,97440.59
2023-05-01T15:49:23.153Z,97435.97
2023-05-01T15:51:54.785Z,97439.06
2023-05-01T15:54:25.296Z,97432.28
2023-05-01T15:56:58.695Z,97433.75
2023-05-01T15:59:30.458Z,97432.47
2023-05-01T16:02:01.073Z,97430.22
2023-05-01T16:04:31.260Z,97434.75
2023-05-01T16:07:01.866Z,97429.56
2023-05-01T16:09:34.231Z,97422.09
2023-05-01T16:12:07.739Z,97433.22
2023-05-01T16:14:39.009Z,97431.09
2023-05-01T16:17:09.762Z,97419.00
2023-05-01T16:19:40.136Z,97429.88
2023-05-01T16:22:11.795Z,97422.22
2023-05-01T16:24:42.304Z,97422.97
2023-05-01T16:27:17.942Z,97430.13
2023-05-01T16:29:48.539Z,97428.13
2023-05-01T16:32:21.035Z,97429.66
2023-05-01T16:34:52.039Z,97420.94
2023-05-01T16:37:25.398Z,97422.34
2023-05-01T16:39:56.728Z,97416.38
2023-05-01T16:42:30.173Z,97415.44
2023-05-01T16:45:00.699Z,97415.19
2023-05-01T16:47:31.482Z,97418.66
2023-05-01T16:50:03.698Z,97421.47
2023-05-01T16:52:34.488Z,97424.72
2023-05-01T16:55:05.134Z,97418.56
2023-05-01T16:57:38.283Z,97428.41
2023-05-01T17:00:11.824Z,97435.31
2023-05-01T17:02:42.497Z,97427.84
2023-05-01T17:05:13.327Z,97430.44
2023-05-01T17:07:43.795Z,97427.19
2023-05-01T17:10:14.568Z,97426.66
2023-05-01T17:12:48.193Z,97425.91
2023-05-01T17:15:18.870Z,97429.47
2023-05-01T17:17:49.110Z,97427.00
2023-05-01T17:20:19.799Z,97425.88
2023-05-01T17:22:50.292Z,97425.34
2023-05-01T17:25:21.162Z,97423.72
2023-05-01T17:27:55.002Z,97426.75
2023-05-01T17:30:25.491Z,97421.81
2023-05-01T17:32:56.480Z,97425.91
2023-05-01T17:35:26.975Z,97420.69
2023-05-01T17:37:58.028Z,97419.75
2023-05-01T17:40:28.525Z,97431.84
2023-05-01T17:43:01.897Z,97432.16
2023-05-01T17:45:32.496Z,97428.06
2023-05-01T17:48:03.161Z,97427.41
2023-05-01T17:50:33.727Z,97435.41
2023-05-01T17:53:04.920Z,97430.41
2023-05-01T17:55:37.221Z,97425.91
2023-05-01T17:58:10.392Z,97435.91
2023-05-01T18:00:40.814Z,97434.94
2023-05-01T18:03:11.460Z,97433.97
2023-05-01T18:05:42.321Z,97448.81
2023-05-01T18:08:12.889Z,97438.97
2023-05-01T18:10:43.165Z,97444.78
2023-05-01T18:13:16.991Z,97447.59
2023-05-01T18:15:48.408Z,97440.03
2023-05-01T18:18:20.403Z,97451.66
2023-05-01T18:20:50.934Z,97455.78
2023-05-01T18:23:21.550Z,97447.66
2023-05-01T18:25:52.034Z,97451.09
2023-05-01T18:28:25.174Z,97454.53
2023-05-01T18:30:55.721Z,97463.28
2023-05-01T18:33:26.207Z,97464.94
2023-05-01T18:35:56.835Z,97470.25
2023-05-01T18:38:28.573Z,97478.94
2023-05-01T18:40:59.175Z,97489.00
2023-05-01T18:43:32.252Z,97481.13
2023-05-01T18:46:02.988Z,97484.97
2023-05-01T18:48:33.175Z,97497.69
2023-05-01T18:51:08.881Z,97490.19
2023-05-01T18:53:40.053Z,97503.19
2023-05-01T18:56:10.515Z,97505.75
2023-05-01T18:58:43.658Z,97514.50
2023-05-01T19:01:14.177Z,97521.84
2023-05-01T19:03:44.698Z,97518.31
2023-05-01T19:06:15.460Z,97522.06
2023-05-01T19:08:45.710Z,97528.41
2023-05-01T19:11:16.330Z,97537.06
2023-05-01T19:13:49.423Z,97545.22
2023-05-01T19:16:20.014Z,97547.56
2023-05-01T19:18:50.609Z,97551.97
2023-05-01T19:21:21.386Z,97550.97
2023-05-01T19:23:51.945Z,97554.06
2023-05-01T19:26:23.447Z,97554.09
2023-05-01T19:28:56.516Z,97562.97
2023-05-01T19:31:27.355Z,97572.09
2023-05-01T19:33:58.100Z,97564.72
2023-05-01T19:36:28.819Z,97563.19
2023-05-01T19:38:59.317Z,97562.97
2023-05-01T19:41:29.866Z,97578.94
2023-05-01T19:44:02.972Z,97576.91
2023-05-01T19:46:33.552Z,97573.63
2023-05-01T19:49:04.025Z,97580.22
2023-05-01T19:51:34.551Z,97582.00
2023-05-01T19:54:05.280Z,97578.41
2023-05-01T19:56:35.854Z,97577.13
2023-05-01T19:59:08.973Z,97592.56
2023-05-01T20:01:40.007Z,97591.03
2023-05-01T20:04:10.602Z,97594.03
2023-05-01T20:06:41.302Z,97587.66
2023-05-01T20:09:11.910Z,97589.19
2023-05-01T20:11:42.578Z,97583.63
2023-05-01T20:14:15.871Z,97596.56
2023-05-01T20:16:46.609Z,97593.22
2023-05-01T20:19:18.089Z,97592.41
2023-05-01T20:21:48.777Z,97598.50
2023-05-01T20:24:20.793Z,97609.09
2023-05-01T20:26:54.081Z,97601.81
2023-05-01T20:29:27.111Z,97602.38
2023-05-01T20:31:57.873Z,97608.22
2023-05-01T20:34:28.499Z,97612.81
2023-05-01T20:36:58.934Z,97605.91
2023-05-01T20:39:29.473Z,97617.88
2023-05-01T20:42:01.015Z,97611.31
2023-05-01T20:44:34.543Z,97613.06
2023-05-01T20:47:04.995Z,97618.88
2023-05-01T20:49:35.782Z,97613.81
2023-05-01T20:52:06.501Z,97626.19
2023-05-01T20:54:37.339Z,97618.31
2023-05-01T20:57:07.597Z,97620.84
2023-05-01T20:59:40.966Z,97626.41
2023-05-01T21:02:11.689Z,97620.00
2023-05-01T21:04:42.189Z,97621.84
2023-05-01T21:07:13.097Z,97612.72
2023-05-01T21:09:47.627Z,97608.97
2023-05-01T21:12:18.128Z,97609.94
2023-05-01T21:14:51.438Z,97619.50
2023-05-01T21:17:22.127Z,97620.28
2023-05-01T21:19:52.871Z,97617.75
2023-05-01T21:22:26.162Z,97615.19
2023-05-01T21:24:58.660Z,97609.41
2023-05-01T21:27:30.605Z,97602.59
2023-05-01T21:30:05.538Z,97598.06
2023-05-01T21:32:42.900Z,97596.84
2023-05-01T21:35:16.716Z,97603.22
2023-05-01T21:37:48.278Z,97607.78
2023-05-01T21:40:18.502Z,97611.81
2023-05-01T21:42:49.034Z,97610.97
2023-05-01T21:45:23.750Z,97611.91
2023-05-01T21:47:54.592Z,97609.63
2023-05-01T21:50:24.799Z,97608.16
2023-05-01T21:52:55.335Z,97604.91
2023-05-01T21:55:28.688Z,97607.94
2023-05-01T21:58:01.414Z,97613.78
2023-05-01T22:00:34.963Z,97611.25
2023-05-01T22:03:10.703Z,97615.06
2023-05-01T22:05:42.396Z,97612.50
2023-05-01T22:08:12.890Z,97614.50
2023-05-01T22:10:45.652Z,97613.00
2023-05-01T22:13:16.432Z,97613.72
2023-05-01T22:15:49.757Z,97623.38
2023-05-01T22:18:20.279Z,97612.28
2023-05-01T22:20:50.789Z,97626.50
2023-05-01T22:23:22.416Z,97617.66
2023-05-01T22:25:59.901Z,97625.75
2023-05-01T22:28:30.586Z,97622.50
2023-05-01T22:31:03.644Z,97626.03
2023-05-01T22:33:34.135Z,97629.31
2023-05-01T22:36:07.305Z,97624.53
2023-05-01T22:38:38.450Z,97620.47
2023-05-01T22:41:09.253Z,97626.31
2023-05-01T22:43:39.870Z,97623.00
2023-05-01T22:46:13.016Z,97619.97
2023-05-01T22:48:43.710Z,97628.09
2023-05-01T22:51:14.157Z,97634.44
2023-05-01T22:53:45.665Z,97633.44
2023-05-01T22:56:16.502Z,97626.06
2023-05-01T22:58:46.978Z,97644.78
2023-05-01T23:01:20.254Z,97640.25
2023-05-01T23:03:50.989Z,97641.53
2023-05-01T23:06:22.264Z,97645.81
2023-05-01T23:08:56.172Z,97644.50
2023-05-01T23:11:26.985Z,97658.97
2023-05-01T23:13:57.797Z,97653.88
2023-05-01T23:16:39.476Z,97651.88
2023-05-01T23:19:13.060Z,97650.84
2023-05-01T23:21:43.859Z,97648.78
2023-05-01T23:24:16.353Z,97650.78
2023-05-01T23:26:47.378Z,97652.59
2023-05-01T23:29:21.624Z,97658.41
2023-05-01T23:31:54.794Z,97655.91
2023-05-01T23:34:26.272Z,97657.16
2023-05-01T23:36:56.746Z,97659.66
2023-05-01T23:39:27.310Z,97655.25
2023-05-01T23:41:57.972Z,97655.44
2023-05-01T23:44:28.751Z,97661.16
2023-05-01T23:47:01.956Z,97660.94
2023-05-01T23:49:32.488Z,97658.66
2023-05-01T23:52:03.024Z,97660.75
2023-05-01T23:54:33.647Z,97662.75
2023-05-01T23:57:04.779Z,97659.41
2023-05-01T23:59:35.765Z,97665.75
